EST,Max TemperatureF,Mean TemperatureF,Min TemperatureF,Max Dew PointF,MeanDew PointF,Min DewpointF,Max Humidity, Mean Humidity, Min Humidity, Max Sea Level PressureIn, Mean Sea Level PressureIn, Min Sea Level PressureIn, Max VisibilityMiles, Mean VisibilityMiles, Min VisibilityMiles, Max Wind SpeedMPH, Mean Wind SpeedMPH, Max Gust SpeedMPH,PrecipitationIn, CloudCover, Events, WindDirDegrees
2012-12-1,59,46,33,47,40,30,100,84,67,30.22,30.12,29.96,10,4,0,23,8,29,T,7,Fog-Rain-Thunderstorm,147
2012-12-2,59,48,36,54,47,36,100,81,62,30.11,30.00,29.90,10,3,0,20,8,26,0.25,6,Fog-Rain,232
2012-12-3,64,50,36,60,53,41,100,89,78,30.10,30.00,29.88,10,3,0,25,10,33,0.00,8,Fog,163
2012-12-4,64,52,39,58,44,29,93,69,44,30.22,30.01,29.89,10,9,4,21,10,29,0.12,4,Rain,274
2012-12-5,39,33,27,28,21,19,75,62,48,30.45,30.37,30.24,10,10,10,16,7,22,0.00,1,,14
2012-12-6,40,34,28,34,27,22,85,75,64,30.31,30.13,29.97,10,10,7,13,7,16,0.00,2,,162
2012-12-7,44,42,39,43,40,35,100,93,85,29.98,29.93,29.87,7,3,1,8,2,10,0.04,8,Rain,204
2012-12-8,42,37,32,41,34,27,96,86,75,30.17,29.97,29.82,10,7,1,13,6,17,0.10,7,Rain,32
2012-12-9,40,36,32,39,33,27,100,88,75,30.17,29.93,29.68,10,5,0,14,6,25,0.10,8,Fog-Rain-Snow,97
2012-12-10,41,35,28,40,32,22,100,83,66,29.92,29.72,29.64,10,8,1,20,9,24,0.02,8,Rain-Snow,295
2012-12-11,35,32,28,28,24,19,92,74,56,30.16,30.02,29.92,10,10,8,18,9,24,T,5,Snow,216
2012-12-12,43,34,25,26,24,21,88,69,49,30.36,30.30,30.18,10,9,5,16,9,21,0.00,1,,192
2012-12-13,47,38,28,27,25,24,85,64,42,30.35,30.27,30.17,10,9,6,20,11,24,0.00,0,,188
2012-12-14,48,38,27,30,28,25,85,68,50,30.26,30.20,30.15,10,9,7,9,4,10,0.00,0,,173
2012-12-15,48,41,33,47,38,28,100,80,60,30.13,29.82,29.63,10,5,2,14,7,21,0.06,6,Rain,154
2012-12-16,49,45,40,48,44,37,100,91,82,29.70,29.63,29.60,10,5,1,15,9,25,0.05,8,Rain,225
2012-12-17,41,38,34,37,34,30,92,83,73,29.75,29.70,29.66,10,8,5,10,4,17,0.00,8,,285
2012-12-18,39,34,28,36,31,27,100,85,70,29.82,29.74,29.69,9,5,2,15,5,18,0.03,7,Rain-Snow,205
2012-12-19,42,37,32,36,34,30,100,87,73,30.10,29.94,29.72,8,4,2,14,3,16,T,7,Rain,335
2012-12-20,48,41,34,46,37,30,92,81,70,29.96,29.40,29.09,10,5,2,23,14,38,0.76,8,Rain,144
2012-12-21,35,34,32,32,28,23,96,83,69,30.04,29.57,29.15,10,6,1,37,23,46,T,8,Snow,323
2012-12-22,36,30,23,24,23,20,88,74,59,30.16,30.09,30.01,10,10,7,23,11,29,0.00,4,,274
2012-12-23,37,29,20,25,21,18,92,78,64,30.06,29.99,29.89,10,8,4,15,5,21,0.00,4,,321
2012-12-24,30,25,19,27,23,19,92,82,72,30.06,29.93,29.82,10,7,0,13,5,18,T,5,Snow,33
2012-12-25,34,26,17,21,18,15,92,76,59,30.35,30.25,30.05,10,9,5,14,6,24,0.00,2,,27
2012-12-26,30,26,22,25,22,18,88,78,68,30.26,30.01,29.89,10,5,0,22,13,32,0.01,8,Fog-Snow,23
2012-12-27,33,27,21,23,20,17,92,78,64,30.20,30.12,29.99,10,9,8,18,6,22,T,7,Snow,341
2012-12-28,31,27,23,28,24,21,92,85,78,30.18,30.07,29.94,8,4,0,9,3,12,0.04,8,Fog-Snow,117
2012-12-29,30,25,20,26,24,20,96,87,78,30.13,29.93,29.83,7,4,1,9,4,12,0.01,8,Snow,348
2012-12-30,30,25,20,27,20,14,100,84,68,30.35,30.24,30.10,10,5,1,17,10,22,0.01,6,Snow,220
2012-12-31,35,29,23,28,23,19,88,79,69,30.17,30.04,29.97,10,8,4,18,11,29,T,5,,261